<?xml version="1.0" encoding="UTF-8" standalone="no" ?>
<gpx xmlns="http://www.topografix.com/GPX/1/1" xmlns:xsi="http://www.w3.org/2001/XMLSchema-instance" xsi:schemaLocation="http://www.topografix.com/GPX/1/1 http://www.topografix.com/GPX/1/1/gpx.xsd" version="1.1" creator="VisuGPX - https://www.visugpx.com">
  <metadata>
    <name>St Geoges par Barraux</name>
    <desc><![CDATA[Barraux St Georges par le replat puis redescente par l\'aire d'envol Parapente]]></desc>
  </metadata>
  <trk>
    <name><![CDATA[st georges]]></name>
    <desc><![CDATA[<h1>OruxMaps</h1><br /><hr align="center" width="480" style="height: 2px; width: 517px"/><h2>Nom: st georges</h2><br /><p>Temps de départ: 11/30/2013 09:43</p><p>Temps d'arrivée: 11/30/2013 12:34</p><p>Distance: 8,8 km (02:50)</p><p>Temps déplacement: 01:44</p><p>Vitesse moyenne: 3,1 km/h</p><p>Vitesse moyenne: 5 km/h</p><p>Vitess Max.: 10,8 km/h</p><p>Altitude minimale: 320 m</p><p>Altitude maximale: 942 m</p><p>Vitesse d'élévation: 557,2 m/h</p><p>Vitesse de descente: -727,6 m/h</p><p>Gain Altitude: 820 m</p><p>Perte Altitude: -782 m</p><p>Temps d'élévation: 01:28</p><p>Temps de descente: 01:04</p><hr align="center" width="480" style="height: 2px; width: 517px"/>]]></desc>
    <trkseg>
      <trkpt lat="45.42916" lon="5.98386">
        <ele>329</ele>
        <time>2013-11-30T08:43:52Z</time>
      </trkpt>
      <trkpt lat="45.42927" lon="5.98363">
        <ele>330</ele>
        <time>2013-11-30T08:44:28Z</time>
      </trkpt>
      <trkpt lat="45.42936" lon="5.98338">
        <ele>330</ele>
        <time>2013-11-30T08:44:43Z</time>
      </trkpt>
      <trkpt lat="45.42947" lon="5.98316">
        <ele>330</ele>
        <time>2013-11-30T08:44:56Z</time>
      </trkpt>
      <trkpt lat="45.42962" lon="5.983">
        <ele>330</ele>
        <time>2013-11-30T08:45:09Z</time>
      </trkpt>
      <trkpt lat="45.42974" lon="5.98281">
        <ele>330</ele>
        <time>2013-11-30T08:45:22Z</time>
      </trkpt>
      <trkpt lat="45.42987" lon="5.98261">
        <ele>329</ele>
        <time>2013-11-30T08:45:33Z</time>
      </trkpt>
      <trkpt lat="45.42998" lon="5.98239">
        <ele>329</ele>
        <time>2013-11-30T08:45:46Z</time>
      </trkpt>
      <trkpt lat="45.4301" lon="5.98218">
        <ele>329</ele>
        <time>2013-11-30T08:46:00Z</time>
      </trkpt>
      <trkpt lat="45.43019" lon="5.98194">
        <ele>329</ele>
        <time>2013-11-30T08:46:17Z</time>
      </trkpt>
      <trkpt lat="45.4303" lon="5.98173">
        <ele>329</ele>
        <time>2013-11-30T08:46:28Z</time>
      </trkpt>
      <trkpt lat="45.43042" lon="5.98153">
        <ele>330</ele>
        <time>2013-11-30T08:46:42Z</time>
      </trkpt>
      <trkpt lat="45.43059" lon="5.98149">
        <ele>331</ele>
        <time>2013-11-30T08:46:56Z</time>
      </trkpt>
      <trkpt lat="45.43079" lon="5.98149">
        <ele>331</ele>
        <time>2013-11-30T08:47:09Z</time>
      </trkpt>
      <trkpt lat="45.43097" lon="5.98151">
        <ele>332</ele>
        <time>2013-11-30T08:47:22Z</time>
      </trkpt>
      <trkpt lat="45.43115" lon="5.98149">
        <ele>332</ele>
        <time>2013-11-30T08:47:35Z</time>
      </trkpt>
      <trkpt lat="45.43135" lon="5.98145">
        <ele>332</ele>
        <time>2013-11-30T08:47:50Z</time>
      </trkpt>
      <trkpt lat="45.43144" lon="5.98123">
        <ele>332</ele>
        <time>2013-11-30T08:48:03Z</time>
      </trkpt>
      <trkpt lat="45.43148" lon="5.98098">
        <ele>333</ele>
        <time>2013-11-30T08:48:16Z</time>
      </trkpt>
      <trkpt lat="45.43153" lon="5.98072">
        <ele>335</ele>
        <time>2013-11-30T08:48:28Z</time>
      </trkpt>
      <trkpt lat="45.43158" lon="5.98047">
        <ele>335</ele>
        <time>2013-11-30T08:48:42Z</time>
      </trkpt>
      <trkpt lat="45.43165" lon="5.98022">
        <ele>337</ele>
        <time>2013-11-30T08:48:56Z</time>
      </trkpt>
      <trkpt lat="45.43173" lon="5.97998">
        <ele>340</ele>
        <time>2013-11-30T08:49:11Z</time>
      </trkpt>
      <trkpt lat="45.43181" lon="5.97974">
        <ele>341</ele>
        <time>2013-11-30T08:49:25Z</time>
      </trkpt>
      <trkpt lat="45.43188" lon="5.97948">
        <ele>342</ele>
        <time>2013-11-30T08:49:39Z</time>
      </trkpt>
      <trkpt lat="45.43195" lon="5.97923">
        <ele>343</ele>
        <time>2013-11-30T08:49:54Z</time>
      </trkpt>
      <trkpt lat="45.43204" lon="5.97899">
        <ele>346</ele>
        <time>2013-11-30T08:50:09Z</time>
      </trkpt>
      <trkpt lat="45.43213" lon="5.97875">
        <ele>347</ele>
        <time>2013-11-30T08:50:22Z</time>
      </trkpt>
      <trkpt lat="45.43222" lon="5.97853">
        <ele>348</ele>
        <time>2013-11-30T08:50:38Z</time>
      </trkpt>
      <trkpt lat="45.43236" lon="5.97835">
        <ele>349</ele>
        <time>2013-11-30T08:50:54Z</time>
      </trkpt>
      <trkpt lat="45.43246" lon="5.97813">
        <ele>352</ele>
        <time>2013-11-30T08:51:09Z</time>
      </trkpt>
      <trkpt lat="45.43259" lon="5.97794">
        <ele>355</ele>
        <time>2013-11-30T08:51:23Z</time>
      </trkpt>
      <trkpt lat="45.43269" lon="5.97771">
        <ele>356</ele>
        <time>2013-11-30T08:51:38Z</time>
      </trkpt>
      <trkpt lat="45.43281" lon="5.97751">
        <ele>357</ele>
        <time>2013-11-30T08:51:53Z</time>
      </trkpt>
      <trkpt lat="45.43296" lon="5.97737">
        <ele>362</ele>
        <time>2013-11-30T08:52:05Z</time>
      </trkpt>
      <trkpt lat="45.43295" lon="5.97708">
        <ele>363</ele>
        <time>2013-11-30T08:52:20Z</time>
      </trkpt>
      <trkpt lat="45.4328" lon="5.97692">
        <ele>364</ele>
        <time>2013-11-30T08:52:38Z</time>
      </trkpt>
      <trkpt lat="45.43263" lon="5.9768">
        <ele>365</ele>
        <time>2013-11-30T08:52:55Z</time>
      </trkpt>
      <trkpt lat="45.43246" lon="5.9767">
        <ele>366</ele>
        <time>2013-11-30T08:53:10Z</time>
      </trkpt>
      <trkpt lat="45.43228" lon="5.97662">
        <ele>370</ele>
        <time>2013-11-30T08:53:28Z</time>
      </trkpt>
      <trkpt lat="45.4322" lon="5.97638">
        <ele>372</ele>
        <time>2013-11-30T08:53:43Z</time>
      </trkpt>
      <trkpt lat="45.43211" lon="5.97616">
        <ele>374</ele>
        <time>2013-11-30T08:54:02Z</time>
      </trkpt>
      <trkpt lat="45.43198" lon="5.97596">
        <ele>375</ele>
        <time>2013-11-30T08:54:23Z</time>
      </trkpt>
      <trkpt lat="45.43187" lon="5.97576">
        <ele>384</ele>
        <time>2013-11-30T08:54:46Z</time>
      </trkpt>
      <trkpt lat="45.43176" lon="5.97555">
        <ele>385</ele>
        <time>2013-11-30T08:55:11Z</time>
      </trkpt>
      <trkpt lat="45.43164" lon="5.97536">
        <ele>392</ele>
        <time>2013-11-30T08:55:40Z</time>
      </trkpt>
      <trkpt lat="45.43151" lon="5.97518">
        <ele>394</ele>
        <time>2013-11-30T08:56:03Z</time>
      </trkpt>
      <trkpt lat="45.43138" lon="5.975">
        <ele>395</ele>
        <time>2013-11-30T08:56:33Z</time>
      </trkpt>
      <trkpt lat="45.43123" lon="5.97484">
        <ele>408</ele>
        <time>2013-11-30T08:57:00Z</time>
      </trkpt>
      <trkpt lat="45.43107" lon="5.9747">
        <ele>410</ele>
        <time>2013-11-30T08:57:21Z</time>
      </trkpt>
      <trkpt lat="45.43089" lon="5.97462">
        <ele>412</ele>
        <time>2013-11-30T08:57:45Z</time>
      </trkpt>
      <trkpt lat="45.43072" lon="5.97449">
        <ele>421</ele>
        <time>2013-11-30T08:58:10Z</time>
      </trkpt>
      <trkpt lat="45.43055" lon="5.97441">
        <ele>423</ele>
        <time>2013-11-30T08:58:30Z</time>
      </trkpt>
      <trkpt lat="45.43038" lon="5.97431">
        <ele>425</ele>
        <time>2013-11-30T08:58:56Z</time>
      </trkpt>
      <trkpt lat="45.43021" lon="5.97423">
        <ele>428</ele>
        <time>2013-11-30T08:59:19Z</time>
      </trkpt>
      <trkpt lat="45.43004" lon="5.97415">
        <ele>437</ele>
        <time>2013-11-30T08:59:40Z</time>
      </trkpt>
      <trkpt lat="45.42988" lon="5.97401">
        <ele>444</ele>
        <time>2013-11-30T09:00:00Z</time>
      </trkpt>
      <trkpt lat="45.42974" lon="5.97385">
        <ele>448</ele>
        <time>2013-11-30T09:00:30Z</time>
      </trkpt>
      <trkpt lat="45.42959" lon="5.97369">
        <ele>451</ele>
        <time>2013-11-30T09:00:46Z</time>
      </trkpt>
      <trkpt lat="45.42944" lon="5.97354">
        <ele>453</ele>
        <time>2013-11-30T09:01:13Z</time>
      </trkpt>
      <trkpt lat="45.42928" lon="5.97342">
        <ele>455</ele>
        <time>2013-11-30T09:01:35Z</time>
      </trkpt>
      <trkpt lat="45.42911" lon="5.97331">
        <ele>461</ele>
        <time>2013-11-30T09:01:52Z</time>
      </trkpt>
      <trkpt lat="45.42893" lon="5.97323">
        <ele>466</ele>
        <time>2013-11-30T09:02:11Z</time>
      </trkpt>
      <trkpt lat="45.42876" lon="5.97313">
        <ele>469</ele>
        <time>2013-11-30T09:02:31Z</time>
      </trkpt>
      <trkpt lat="45.42859" lon="5.97304">
        <ele>470</ele>
        <time>2013-11-30T09:02:55Z</time>
      </trkpt>
      <trkpt lat="45.4284" lon="5.97299">
        <ele>472</ele>
        <time>2013-11-30T09:03:20Z</time>
      </trkpt>
      <trkpt lat="45.42822" lon="5.97298">
        <ele>479</ele>
        <time>2013-11-30T09:03:44Z</time>
      </trkpt>
      <trkpt lat="45.42803" lon="5.97296">
        <ele>480</ele>
        <time>2013-11-30T09:04:10Z</time>
      </trkpt>
      <trkpt lat="45.42784" lon="5.97293">
        <ele>481</ele>
        <time>2013-11-30T09:04:30Z</time>
      </trkpt>
      <trkpt lat="45.42766" lon="5.97296">
        <ele>481</ele>
        <time>2013-11-30T09:04:49Z</time>
      </trkpt>
      <trkpt lat="45.42747" lon="5.97297">
        <ele>482</ele>
        <time>2013-11-30T09:05:10Z</time>
      </trkpt>
      <trkpt lat="45.42729" lon="5.97293">
        <ele>482</ele>
        <time>2013-11-30T09:05:29Z</time>
      </trkpt>
      <trkpt lat="45.4271" lon="5.97291">
        <ele>482</ele>
        <time>2013-11-30T09:05:50Z</time>
      </trkpt>
      <trkpt lat="45.42692" lon="5.97284">
        <ele>483</ele>
        <time>2013-11-30T09:06:07Z</time>
      </trkpt>
      <trkpt lat="45.42674" lon="5.97278">
        <ele>484</ele>
        <time>2013-11-30T09:06:26Z</time>
      </trkpt>
      <trkpt lat="45.42656" lon="5.97271">
        <ele>482</ele>
        <time>2013-11-30T09:06:46Z</time>
      </trkpt>
      <trkpt lat="45.4264" lon="5.97258">
        <ele>481</ele>
        <time>2013-11-30T09:07:04Z</time>
      </trkpt>
      <trkpt lat="45.42626" lon="5.97241">
        <ele>490</ele>
        <time>2013-11-30T09:07:56Z</time>
      </trkpt>
      <trkpt lat="45.42608" lon="5.97231">
        <ele>489</ele>
        <time>2013-11-30T09:08:14Z</time>
      </trkpt>
      <trkpt lat="45.42594" lon="5.97215">
        <ele>491</ele>
        <time>2013-11-30T09:09:00Z</time>
      </trkpt>
      <trkpt lat="45.42576" lon="5.97207">
        <ele>486</ele>
        <time>2013-11-30T09:09:14Z</time>
      </trkpt>
      <trkpt lat="45.42559" lon="5.97198">
        <ele>487</ele>
        <time>2013-11-30T09:09:30Z</time>
      </trkpt>
      <trkpt lat="45.42541" lon="5.97188">
        <ele>486</ele>
        <time>2013-11-30T09:09:46Z</time>
      </trkpt>
      <trkpt lat="45.42524" lon="5.97175">
        <ele>487</ele>
        <time>2013-11-30T09:10:02Z</time>
      </trkpt>
      <trkpt lat="45.42508" lon="5.97164">
        <ele>494</ele>
        <time>2013-11-30T09:10:17Z</time>
      </trkpt>
      <trkpt lat="45.42492" lon="5.9715">
        <ele>495</ele>
        <time>2013-11-30T09:10:35Z</time>
      </trkpt>
      <trkpt lat="45.42477" lon="5.97136">
        <ele>499</ele>
        <time>2013-11-30T09:10:53Z</time>
      </trkpt>
      <trkpt lat="45.42459" lon="5.97126">
        <ele>500</ele>
        <time>2013-11-30T09:11:13Z</time>
      </trkpt>
      <trkpt lat="45.42444" lon="5.9711">
        <ele>502</ele>
        <time>2013-11-30T09:11:31Z</time>
      </trkpt>
      <trkpt lat="45.42428" lon="5.97098">
        <ele>505</ele>
        <time>2013-11-30T09:11:52Z</time>
      </trkpt>
      <trkpt lat="45.42411" lon="5.97086">
        <ele>507</ele>
        <time>2013-11-30T09:12:11Z</time>
      </trkpt>
      <trkpt lat="45.42396" lon="5.97071">
        <ele>517</ele>
        <time>2013-11-30T09:12:34Z</time>
      </trkpt>
      <trkpt lat="45.4238" lon="5.97059">
        <ele>519</ele>
        <time>2013-11-30T09:12:54Z</time>
      </trkpt>
      <trkpt lat="45.42363" lon="5.97051">
        <ele>520</ele>
        <time>2013-11-30T09:13:14Z</time>
      </trkpt>
      <trkpt lat="45.42346" lon="5.97041">
        <ele>521</ele>
        <time>2013-11-30T09:13:33Z</time>
      </trkpt>
      <trkpt lat="45.42327" lon="5.97038">
        <ele>517</ele>
        <time>2013-11-30T09:13:50Z</time>
      </trkpt>
      <trkpt lat="45.42309" lon="5.97034">
        <ele>518</ele>
        <time>2013-11-30T09:14:08Z</time>
      </trkpt>
      <trkpt lat="45.42291" lon="5.9703">
        <ele>518</ele>
        <time>2013-11-30T09:14:25Z</time>
      </trkpt>
      <trkpt lat="45.42273" lon="5.97024">
        <ele>519</ele>
        <time>2013-11-30T09:14:45Z</time>
      </trkpt>
      <trkpt lat="45.42255" lon="5.97017">
        <ele>521</ele>
        <time>2013-11-30T09:14:59Z</time>
      </trkpt>
      <trkpt lat="45.42237" lon="5.9701">
        <ele>519</ele>
        <time>2013-11-30T09:15:16Z</time>
      </trkpt>
      <trkpt lat="45.42219" lon="5.97002">
        <ele>516</ele>
        <time>2013-11-30T09:15:32Z</time>
      </trkpt>
      <trkpt lat="45.42202" lon="5.96991">
        <ele>534</ele>
        <time>2013-11-30T09:15:49Z</time>
      </trkpt>
      <trkpt lat="45.42185" lon="5.96981">
        <ele>533</ele>
        <time>2013-11-30T09:16:10Z</time>
      </trkpt>
      <trkpt lat="45.42169" lon="5.96968">
        <ele>536</ele>
        <time>2013-11-30T09:16:28Z</time>
      </trkpt>
      <trkpt lat="45.42154" lon="5.96953">
        <ele>536</ele>
        <time>2013-11-30T09:16:47Z</time>
      </trkpt>
      <trkpt lat="45.42139" lon="5.96936">
        <ele>538</ele>
        <time>2013-11-30T09:17:07Z</time>
      </trkpt>
      <trkpt lat="45.42122" lon="5.96926">
        <ele>539</ele>
        <time>2013-11-30T09:17:27Z</time>
      </trkpt>
      <trkpt lat="45.42107" lon="5.96911">
        <ele>559</ele>
        <time>2013-11-30T09:17:44Z</time>
      </trkpt>
      <trkpt lat="45.42092" lon="5.96897">
        <ele>560</ele>
        <time>2013-11-30T09:18:12Z</time>
      </trkpt>
      <trkpt lat="45.42074" lon="5.96891">
        <ele>556</ele>
        <time>2013-11-30T09:18:38Z</time>
      </trkpt>
      <trkpt lat="45.42056" lon="5.96887">
        <ele>556</ele>
        <time>2013-11-30T09:19:05Z</time>
      </trkpt>
      <trkpt lat="45.4204" lon="5.96874">
        <ele>557</ele>
        <time>2013-11-30T09:19:32Z</time>
      </trkpt>
      <trkpt lat="45.42045" lon="5.96849">
        <ele>562</ele>
        <time>2013-11-30T09:19:57Z</time>
      </trkpt>
      <trkpt lat="45.42062" lon="5.96836">
        <ele>567</ele>
        <time>2013-11-30T09:20:31Z</time>
      </trkpt>
      <trkpt lat="45.42079" lon="5.9683">
        <ele>581</ele>
        <time>2013-11-30T09:21:09Z</time>
      </trkpt>
      <trkpt lat="45.42074" lon="5.96805">
        <ele>587</ele>
        <time>2013-11-30T09:22:03Z</time>
      </trkpt>
      <trkpt lat="45.42058" lon="5.96793">
        <ele>589</ele>
        <time>2013-11-30T09:22:35Z</time>
      </trkpt>
      <trkpt lat="45.42043" lon="5.96778">
        <ele>590</ele>
        <time>2013-11-30T09:23:15Z</time>
      </trkpt>
      <trkpt lat="45.42033" lon="5.96756">
        <ele>592</ele>
        <time>2013-11-30T09:23:48Z</time>
      </trkpt>
      <trkpt lat="45.42037" lon="5.9673">
        <ele>617</ele>
        <time>2013-11-30T09:24:28Z</time>
      </trkpt>
      <trkpt lat="45.42037" lon="5.96704">
        <ele>623</ele>
        <time>2013-11-30T09:25:10Z</time>
      </trkpt>
      <trkpt lat="45.42034" lon="5.96678">
        <ele>627</ele>
        <time>2013-11-30T09:25:51Z</time>
      </trkpt>
      <trkpt lat="45.42028" lon="5.96654">
        <ele>649</ele>
        <time>2013-11-30T09:26:38Z</time>
      </trkpt>
      <trkpt lat="45.42032" lon="5.96629">
        <ele>656</ele>
        <time>2013-11-30T09:27:22Z</time>
      </trkpt>
      <trkpt lat="45.42047" lon="5.96615">
        <ele>661</ele>
        <time>2013-11-30T09:28:11Z</time>
      </trkpt>
      <trkpt lat="45.42047" lon="5.9659">
        <ele>665</ele>
        <time>2013-11-30T09:29:09Z</time>
      </trkpt>
      <trkpt lat="45.42039" lon="5.96566">
        <ele>687</ele>
        <time>2013-11-30T09:30:24Z</time>
      </trkpt>
      <trkpt lat="45.42041" lon="5.96541">
        <ele>693</ele>
        <time>2013-11-30T09:31:05Z</time>
      </trkpt>
      <trkpt lat="45.42042" lon="5.96514">
        <ele>698</ele>
        <time>2013-11-30T09:32:00Z</time>
      </trkpt>
      <trkpt lat="45.42051" lon="5.96492">
        <ele>729</ele>
        <time>2013-11-30T09:32:56Z</time>
      </trkpt>
      <trkpt lat="45.42051" lon="5.96467">
        <ele>737</ele>
        <time>2013-11-30T09:33:54Z</time>
      </trkpt>
      <trkpt lat="45.42069" lon="5.9647">
        <ele>735</ele>
        <time>2013-11-30T09:35:03Z</time>
      </trkpt>
      <trkpt lat="45.42062" lon="5.96446">
        <ele>746</ele>
        <time>2013-11-30T09:36:29Z</time>
      </trkpt>
      <trkpt lat="45.42046" lon="5.96434">
        <ele>747</ele>
        <time>2013-11-30T09:37:00Z</time>
      </trkpt>
      <trkpt lat="45.42028" lon="5.96439">
        <ele>745</ele>
        <time>2013-11-30T09:37:49Z</time>
      </trkpt>
      <trkpt lat="45.4201" lon="5.96434">
        <ele>749</ele>
        <time>2013-11-30T09:39:46Z</time>
      </trkpt>
      <trkpt lat="45.41992" lon="5.96428">
        <ele>755</ele>
        <time>2013-11-30T09:40:15Z</time>
      </trkpt>
      <trkpt lat="45.41975" lon="5.96436">
        <ele>751</ele>
        <time>2013-11-30T09:40:41Z</time>
      </trkpt>
      <trkpt lat="45.41958" lon="5.96428">
        <ele>755</ele>
        <time>2013-11-30T09:41:17Z</time>
      </trkpt>
      <trkpt lat="45.4194" lon="5.96429">
        <ele>761</ele>
        <time>2013-11-30T09:41:52Z</time>
      </trkpt>
      <trkpt lat="45.41923" lon="5.96419">
        <ele>777</ele>
        <time>2013-11-30T09:42:36Z</time>
      </trkpt>
      <trkpt lat="45.41904" lon="5.96415">
        <ele>798</ele>
        <time>2013-11-30T09:43:08Z</time>
      </trkpt>
      <trkpt lat="45.41887" lon="5.96405">
        <ele>807</ele>
        <time>2013-11-30T09:43:51Z</time>
      </trkpt>
      <trkpt lat="45.41906" lon="5.964">
        <ele>805</ele>
        <time>2013-11-30T09:44:51Z</time>
      </trkpt>
      <trkpt lat="45.41924" lon="5.96396">
        <ele>799</ele>
        <time>2013-11-30T09:45:09Z</time>
      </trkpt>
      <trkpt lat="45.41939" lon="5.96381">
        <ele>806</ele>
        <time>2013-11-30T09:45:26Z</time>
      </trkpt>
      <trkpt lat="45.41955" lon="5.96368">
        <ele>808</ele>
        <time>2013-11-30T09:45:53Z</time>
      </trkpt>
      <trkpt lat="45.4197" lon="5.96351">
        <ele>811</ele>
        <time>2013-11-30T09:46:25Z</time>
      </trkpt>
      <trkpt lat="45.41985" lon="5.96337">
        <ele>815</ele>
        <time>2013-11-30T09:47:00Z</time>
      </trkpt>
      <trkpt lat="45.42004" lon="5.96334">
        <ele>816</ele>
        <time>2013-11-30T09:47:21Z</time>
      </trkpt>
      <trkpt lat="45.42022" lon="5.96324">
        <ele>834</ele>
        <time>2013-11-30T09:47:59Z</time>
      </trkpt>
      <trkpt lat="45.42038" lon="5.96313">
        <ele>839</ele>
        <time>2013-11-30T09:48:16Z</time>
      </trkpt>
      <trkpt lat="45.42047" lon="5.96291">
        <ele>845</ele>
        <time>2013-11-30T09:48:51Z</time>
      </trkpt>
      <trkpt lat="45.42029" lon="5.96283">
        <ele>846</ele>
        <time>2013-11-30T09:50:01Z</time>
      </trkpt>
      <trkpt lat="45.42012" lon="5.96274">
        <ele>849</ele>
        <time>2013-11-30T09:50:38Z</time>
      </trkpt>
      <trkpt lat="45.41995" lon="5.9627">
        <ele>855</ele>
        <time>2013-11-30T09:51:18Z</time>
      </trkpt>
      <trkpt lat="45.42" lon="5.96245">
        <ele>865</ele>
        <time>2013-11-30T09:51:52Z</time>
      </trkpt>
      <trkpt lat="45.42013" lon="5.96227">
        <ele>877</ele>
        <time>2013-11-30T09:52:41Z</time>
      </trkpt>
      <trkpt lat="45.42003" lon="5.96206">
        <ele>884</ele>
        <time>2013-11-30T09:53:59Z</time>
      </trkpt>
      <trkpt lat="45.42" lon="5.9618">
        <ele>892</ele>
        <time>2013-11-30T09:54:51Z</time>
      </trkpt>
      <trkpt lat="45.41989" lon="5.9616">
        <ele>900</ele>
        <time>2013-11-30T09:55:55Z</time>
      </trkpt>
      <trkpt lat="45.4198" lon="5.96137">
        <ele>901</ele>
        <time>2013-11-30T09:57:20Z</time>
      </trkpt>
      <trkpt lat="45.41969" lon="5.96115">
        <ele>902</ele>
        <time>2013-11-30T09:57:51Z</time>
      </trkpt>
      <trkpt lat="45.41968" lon="5.96088">
        <ele>903</ele>
        <time>2013-11-30T09:58:22Z</time>
      </trkpt>
      <trkpt lat="45.41959" lon="5.96065">
        <ele>912</ele>
        <time>2013-11-30T10:03:42Z</time>
      </trkpt>
      <trkpt lat="45.41969" lon="5.96043">
        <ele>914</ele>
        <time>2013-11-30T10:04:20Z</time>
      </trkpt>
      <trkpt lat="45.41983" lon="5.96025">
        <ele>917</ele>
        <time>2013-11-30T10:04:51Z</time>
      </trkpt>
      <trkpt lat="45.41985" lon="5.95999">
        <ele>928</ele>
        <time>2013-11-30T10:05:33Z</time>
      </trkpt>
      <trkpt lat="45.42003" lon="5.95995">
        <ele>927</ele>
        <time>2013-11-30T10:06:27Z</time>
      </trkpt>
      <trkpt lat="45.4202" lon="5.96003">
        <ele>922</ele>
        <time>2013-11-30T10:06:51Z</time>
      </trkpt>
      <trkpt lat="45.42037" lon="5.96014">
        <ele>921</ele>
        <time>2013-11-30T10:07:12Z</time>
      </trkpt>
      <trkpt lat="45.42053" lon="5.96028">
        <ele>920</ele>
        <time>2013-11-30T10:07:32Z</time>
      </trkpt>
      <trkpt lat="45.42068" lon="5.96041">
        <ele>919</ele>
        <time>2013-11-30T10:07:46Z</time>
      </trkpt>
      <trkpt lat="45.42085" lon="5.96052">
        <ele>926</ele>
        <time>2013-11-30T10:08:04Z</time>
      </trkpt>
      <trkpt lat="45.42091" lon="5.96076">
        <ele>920</ele>
        <time>2013-11-30T10:08:24Z</time>
      </trkpt>
      <trkpt lat="45.42088" lon="5.96102">
        <ele>918</ele>
        <time>2013-11-30T10:08:42Z</time>
      </trkpt>
      <trkpt lat="45.4209" lon="5.96128">
        <ele>918</ele>
        <time>2013-11-30T10:08:58Z</time>
      </trkpt>
      <trkpt lat="45.421" lon="5.96151">
        <ele>917</ele>
        <time>2013-11-30T10:09:15Z</time>
      </trkpt>
      <trkpt lat="45.42111" lon="5.96173">
        <ele>909</ele>
        <time>2013-11-30T10:09:31Z</time>
      </trkpt>
      <trkpt lat="45.42124" lon="5.96193">
        <ele>910</ele>
        <time>2013-11-30T10:09:49Z</time>
      </trkpt>
      <trkpt lat="45.4214" lon="5.96206">
        <ele>911</ele>
        <time>2013-11-30T10:10:12Z</time>
      </trkpt>
      <trkpt lat="45.42157" lon="5.96215">
        <ele>913</ele>
        <time>2013-11-30T10:10:42Z</time>
      </trkpt>
      <trkpt lat="45.42175" lon="5.96222">
        <ele>929</ele>
        <time>2013-11-30T10:10:59Z</time>
      </trkpt>
      <trkpt lat="45.42187" lon="5.96242">
        <ele>928</ele>
        <time>2013-11-30T10:11:17Z</time>
      </trkpt>
      <trkpt lat="45.42199" lon="5.96261">
        <ele>916</ele>
        <time>2013-11-30T10:11:50Z</time>
      </trkpt>
      <trkpt lat="45.42216" lon="5.9627">
        <ele>919</ele>
        <time>2013-11-30T10:12:14Z</time>
      </trkpt>
      <trkpt lat="45.42234" lon="5.96258">
        <ele>928</ele>
        <time>2013-11-30T10:12:34Z</time>
      </trkpt>
      <trkpt lat="45.42252" lon="5.96258">
        <ele>942</ele>
        <time>2013-11-30T10:12:52Z</time>
      </trkpt>
      <trkpt lat="45.42269" lon="5.96246">
        <ele>944</ele>
        <time>2013-11-30T10:13:33Z</time>
      </trkpt>
      <trkpt lat="45.42287" lon="5.96241">
        <ele>944</ele>
        <time>2013-11-30T10:13:52Z</time>
      </trkpt>
      <trkpt lat="45.42305" lon="5.9624">
        <ele>943</ele>
        <time>2013-11-30T10:14:14Z</time>
      </trkpt>
      <trkpt lat="45.42324" lon="5.96237">
        <ele>943</ele>
        <time>2013-11-30T10:14:34Z</time>
      </trkpt>
      <trkpt lat="45.42343" lon="5.96243">
        <ele>942</ele>
        <time>2013-11-30T10:14:55Z</time>
      </trkpt>
      <trkpt lat="45.42361" lon="5.96244">
        <ele>942</ele>
        <time>2013-11-30T10:15:12Z</time>
      </trkpt>
      <trkpt lat="45.42379" lon="5.96245">
        <ele>942</ele>
        <time>2013-11-30T10:15:30Z</time>
      </trkpt>
      <trkpt lat="45.42398" lon="5.96246">
        <ele>941</ele>
        <time>2013-11-30T10:15:46Z</time>
      </trkpt>
      <trkpt lat="45.42417" lon="5.96245">
        <ele>939</ele>
        <time>2013-11-30T10:16:07Z</time>
      </trkpt>
      <trkpt lat="45.42435" lon="5.96244">
        <ele>941</ele>
        <time>2013-11-30T10:16:20Z</time>
      </trkpt>
      <trkpt lat="45.42454" lon="5.96242">
        <ele>942</ele>
        <time>2013-11-30T10:16:39Z</time>
      </trkpt>
      <trkpt lat="45.42473" lon="5.96241">
        <ele>943</ele>
        <time>2013-11-30T10:17:10Z</time>
      </trkpt>
      <trkpt lat="45.42491" lon="5.96246">
        <ele>942</ele>
        <time>2013-11-30T10:17:33Z</time>
      </trkpt>
      <trkpt lat="45.42508" lon="5.96257">
        <ele>943</ele>
        <time>2013-11-30T10:17:54Z</time>
      </trkpt>
      <trkpt lat="45.42527" lon="5.96259">
        <ele>943</ele>
        <time>2013-11-30T10:18:11Z</time>
      </trkpt>
      <trkpt lat="45.42545" lon="5.9626">
        <ele>944</ele>
        <time>2013-11-30T10:18:28Z</time>
      </trkpt>
      <trkpt lat="45.42563" lon="5.96268">
        <ele>944</ele>
        <time>2013-11-30T10:18:47Z</time>
      </trkpt>
      <trkpt lat="45.42581" lon="5.96275">
        <ele>944</ele>
        <time>2013-11-30T10:19:05Z</time>
      </trkpt>
      <trkpt lat="45.42599" lon="5.96274">
        <ele>944</ele>
        <time>2013-11-30T10:19:24Z</time>
      </trkpt>
      <trkpt lat="45.42617" lon="5.96283">
        <ele>944</ele>
        <time>2013-11-30T10:19:43Z</time>
      </trkpt>
      <trkpt lat="45.42635" lon="5.96288">
        <ele>944</ele>
        <time>2013-11-30T10:19:57Z</time>
      </trkpt>
      <trkpt lat="45.42653" lon="5.96295">
        <ele>944</ele>
        <time>2013-11-30T10:20:14Z</time>
      </trkpt>
      <trkpt lat="45.4267" lon="5.96304">
        <ele>943</ele>
        <time>2013-11-30T10:20:36Z</time>
      </trkpt>
      <trkpt lat="45.42688" lon="5.96313">
        <ele>942</ele>
        <time>2013-11-30T10:20:56Z</time>
      </trkpt>
      <trkpt lat="45.42706" lon="5.9632">
        <ele>942</ele>
        <time>2013-11-30T10:21:13Z</time>
      </trkpt>
      <trkpt lat="45.42724" lon="5.96321">
        <ele>941</ele>
        <time>2013-11-30T10:21:33Z</time>
      </trkpt>
      <trkpt lat="45.42742" lon="5.96313">
        <ele>940</ele>
        <time>2013-11-30T10:21:49Z</time>
      </trkpt>
      <trkpt lat="45.4276" lon="5.96319">
        <ele>938</ele>
        <time>2013-11-30T10:22:03Z</time>
      </trkpt>
      <trkpt lat="45.42779" lon="5.96323">
        <ele>939</ele>
        <time>2013-11-30T10:22:17Z</time>
      </trkpt>
      <trkpt lat="45.42797" lon="5.96331">
        <ele>938</ele>
        <time>2013-11-30T10:22:33Z</time>
      </trkpt>
      <trkpt lat="45.42815" lon="5.96333">
        <ele>932</ele>
        <time>2013-11-30T10:22:49Z</time>
      </trkpt>
      <trkpt lat="45.42833" lon="5.96337">
        <ele>931</ele>
        <time>2013-11-30T10:23:12Z</time>
      </trkpt>
      <trkpt lat="45.42852" lon="5.96339">
        <ele>929</ele>
        <time>2013-11-30T10:23:28Z</time>
      </trkpt>
      <trkpt lat="45.4287" lon="5.96341">
        <ele>928</ele>
        <time>2013-11-30T10:23:42Z</time>
      </trkpt>
      <trkpt lat="45.42887" lon="5.96332">
        <ele>932</ele>
        <time>2013-11-30T10:23:59Z</time>
      </trkpt>
      <trkpt lat="45.42905" lon="5.96326">
        <ele>929</ele>
        <time>2013-11-30T10:24:17Z</time>
      </trkpt>
      <trkpt lat="45.42923" lon="5.96333">
        <ele>926</ele>
        <time>2013-11-30T10:24:34Z</time>
      </trkpt>
      <trkpt lat="45.42942" lon="5.96336">
        <ele>922</ele>
        <time>2013-11-30T10:24:50Z</time>
      </trkpt>
      <trkpt lat="45.42958" lon="5.96347">
        <ele>921</ele>
        <time>2013-11-30T10:25:04Z</time>
      </trkpt>
      <trkpt lat="45.42977" lon="5.96354">
        <ele>921</ele>
        <time>2013-11-30T10:25:22Z</time>
      </trkpt>
      <trkpt lat="45.42995" lon="5.96359">
        <ele>920</ele>
        <time>2013-11-30T10:25:40Z</time>
      </trkpt>
      <trkpt lat="45.43013" lon="5.96362">
        <ele>916</ele>
        <time>2013-11-30T10:25:59Z</time>
      </trkpt>
      <trkpt lat="45.43032" lon="5.96358">
        <ele>916</ele>
        <time>2013-11-30T10:26:20Z</time>
      </trkpt>
      <trkpt lat="45.4305" lon="5.96368">
        <ele>915</ele>
        <time>2013-11-30T10:26:37Z</time>
      </trkpt>
      <trkpt lat="45.43072" lon="5.96382">
        <ele>913</ele>
        <time>2013-11-30T10:26:57Z</time>
      </trkpt>
      <trkpt lat="45.43089" lon="5.96392">
        <ele>906</ele>
        <time>2013-11-30T10:27:10Z</time>
      </trkpt>
      <trkpt lat="45.43108" lon="5.96391">
        <ele>906</ele>
        <time>2013-11-30T10:28:21Z</time>
      </trkpt>
      <trkpt lat="45.43125" lon="5.96398">
        <ele>904</ele>
        <time>2013-11-30T10:30:58Z</time>
      </trkpt>
      <trkpt lat="45.43144" lon="5.96394">
        <ele>902</ele>
        <time>2013-11-30T10:31:10Z</time>
      </trkpt>
      <trkpt lat="45.43162" lon="5.96392">
        <ele>900</ele>
        <time>2013-11-30T10:31:30Z</time>
      </trkpt>
      <trkpt lat="45.43181" lon="5.96392">
        <ele>887</ele>
        <time>2013-11-30T10:31:49Z</time>
      </trkpt>
      <trkpt lat="45.43199" lon="5.96386">
        <ele>887</ele>
        <time>2013-11-30T10:32:10Z</time>
      </trkpt>
      <trkpt lat="45.43217" lon="5.96376">
        <ele>886</ele>
        <time>2013-11-30T10:32:28Z</time>
      </trkpt>
      <trkpt lat="45.43234" lon="5.96369">
        <ele>886</ele>
        <time>2013-11-30T10:32:54Z</time>
      </trkpt>
      <trkpt lat="45.43251" lon="5.9638">
        <ele>864</ele>
        <time>2013-11-30T10:33:12Z</time>
      </trkpt>
      <trkpt lat="45.43269" lon="5.96378">
        <ele>864</ele>
        <time>2013-11-30T10:33:30Z</time>
      </trkpt>
      <trkpt lat="45.43287" lon="5.96377">
        <ele>863</ele>
        <time>2013-11-30T10:33:51Z</time>
      </trkpt>
      <trkpt lat="45.43305" lon="5.96379">
        <ele>861</ele>
        <time>2013-11-30T10:34:10Z</time>
      </trkpt>
      <trkpt lat="45.43324" lon="5.96378">
        <ele>859</ele>
        <time>2013-11-30T10:34:30Z</time>
      </trkpt>
      <trkpt lat="45.43342" lon="5.96378">
        <ele>852</ele>
        <time>2013-11-30T10:34:50Z</time>
      </trkpt>
      <trkpt lat="45.43361" lon="5.96379">
        <ele>852</ele>
        <time>2013-11-30T10:35:08Z</time>
      </trkpt>
      <trkpt lat="45.4338" lon="5.96378">
        <ele>852</ele>
        <time>2013-11-30T10:35:32Z</time>
      </trkpt>
      <trkpt lat="45.43396" lon="5.96391">
        <ele>845</ele>
        <time>2013-11-30T10:35:46Z</time>
      </trkpt>
      <trkpt lat="45.43413" lon="5.964">
        <ele>836</ele>
        <time>2013-11-30T10:36:04Z</time>
      </trkpt>
      <trkpt lat="45.43431" lon="5.96397">
        <ele>843</ele>
        <time>2013-11-30T10:36:24Z</time>
      </trkpt>
      <trkpt lat="45.43448" lon="5.96403">
        <ele>846</ele>
        <time>2013-11-30T10:36:41Z</time>
      </trkpt>
      <trkpt lat="45.43465" lon="5.96413">
        <ele>845</ele>
        <time>2013-11-30T10:36:59Z</time>
      </trkpt>
      <trkpt lat="45.43478" lon="5.96431">
        <ele>807</ele>
        <time>2013-11-30T10:37:35Z</time>
      </trkpt>
      <trkpt lat="45.43491" lon="5.96449">
        <ele>802</ele>
        <time>2013-11-30T10:38:09Z</time>
      </trkpt>
      <trkpt lat="45.43484" lon="5.96473">
        <ele>792</ele>
        <time>2013-11-30T10:39:13Z</time>
      </trkpt>
      <trkpt lat="45.43469" lon="5.96488">
        <ele>790</ele>
        <time>2013-11-30T10:39:42Z</time>
      </trkpt>
      <trkpt lat="45.43458" lon="5.96508">
        <ele>761</ele>
        <time>2013-11-30T10:40:14Z</time>
      </trkpt>
      <trkpt lat="45.43464" lon="5.96532">
        <ele>756</ele>
        <time>2013-11-30T10:40:42Z</time>
      </trkpt>
      <trkpt lat="45.43471" lon="5.96557">
        <ele>751</ele>
        <time>2013-11-30T10:41:25Z</time>
      </trkpt>
      <trkpt lat="45.43481" lon="5.9658">
        <ele>746</ele>
        <time>2013-11-30T10:41:41Z</time>
      </trkpt>
      <trkpt lat="45.43491" lon="5.96602">
        <ele>724</ele>
        <time>2013-11-30T10:41:59Z</time>
      </trkpt>
      <trkpt lat="45.435" lon="5.96624">
        <ele>715</ele>
        <time>2013-11-30T10:42:17Z</time>
      </trkpt>
      <trkpt lat="45.43514" lon="5.9664">
        <ele>717</ele>
        <time>2013-11-30T10:42:37Z</time>
      </trkpt>
      <trkpt lat="45.4353" lon="5.96654">
        <ele>715</ele>
        <time>2013-11-30T10:43:04Z</time>
      </trkpt>
      <trkpt lat="45.43548" lon="5.96658">
        <ele>716</ele>
        <time>2013-11-30T10:43:30Z</time>
      </trkpt>
      <trkpt lat="45.43566" lon="5.96663">
        <ele>713</ele>
        <time>2013-11-30T10:43:56Z</time>
      </trkpt>
      <trkpt lat="45.43573" lon="5.96688">
        <ele>687</ele>
        <time>2013-11-30T10:44:24Z</time>
      </trkpt>
      <trkpt lat="45.43582" lon="5.96712">
        <ele>679</ele>
        <time>2013-11-30T10:44:43Z</time>
      </trkpt>
      <trkpt lat="45.43592" lon="5.96734">
        <ele>680</ele>
        <time>2013-11-30T10:45:01Z</time>
      </trkpt>
      <trkpt lat="45.43605" lon="5.96753">
        <ele>661</ele>
        <time>2013-11-30T10:45:24Z</time>
      </trkpt>
      <trkpt lat="45.43615" lon="5.96776">
        <ele>658</ele>
        <time>2013-11-30T10:45:40Z</time>
      </trkpt>
      <trkpt lat="45.43624" lon="5.96798">
        <ele>655</ele>
        <time>2013-11-30T10:46:06Z</time>
      </trkpt>
      <trkpt lat="45.43627" lon="5.96823">
        <ele>651</ele>
        <time>2013-11-30T10:47:45Z</time>
      </trkpt>
      <trkpt lat="45.43638" lon="5.96845">
        <ele>629</ele>
        <time>2013-11-30T10:48:23Z</time>
      </trkpt>
      <trkpt lat="45.4365" lon="5.96865">
        <ele>626</ele>
        <time>2013-11-30T10:48:59Z</time>
      </trkpt>
      <trkpt lat="45.43664" lon="5.96882">
        <ele>622</ele>
        <time>2013-11-30T10:49:32Z</time>
      </trkpt>
      <trkpt lat="45.43669" lon="5.96909">
        <ele>619</ele>
        <time>2013-11-30T10:49:50Z</time>
      </trkpt>
      <trkpt lat="45.43677" lon="5.96934">
        <ele>605</ele>
        <time>2013-11-30T10:50:07Z</time>
      </trkpt>
      <trkpt lat="45.4369" lon="5.96955">
        <ele>598</ele>
        <time>2013-11-30T10:50:23Z</time>
      </trkpt>
      <trkpt lat="45.43704" lon="5.96972">
        <ele>595</ele>
        <time>2013-11-30T10:50:41Z</time>
      </trkpt>
      <trkpt lat="45.43722" lon="5.96973">
        <ele>594</ele>
        <time>2013-11-30T10:51:07Z</time>
      </trkpt>
      <trkpt lat="45.43737" lon="5.96958">
        <ele>597</ele>
        <time>2013-11-30T10:51:23Z</time>
      </trkpt>
      <trkpt lat="45.43755" lon="5.96965">
        <ele>592</ele>
        <time>2013-11-30T10:51:47Z</time>
      </trkpt>
      <trkpt lat="45.43764" lon="5.9699">
        <ele>587</ele>
        <time>2013-11-30T10:52:09Z</time>
      </trkpt>
      <trkpt lat="45.4378" lon="5.97003">
        <ele>566</ele>
        <time>2013-11-30T10:52:47Z</time>
      </trkpt>
      <trkpt lat="45.43797" lon="5.97011">
        <ele>563</ele>
        <time>2013-11-30T10:53:25Z</time>
      </trkpt>
      <trkpt lat="45.43803" lon="5.97035">
        <ele>558</ele>
        <time>2013-11-30T10:54:04Z</time>
      </trkpt>
      <trkpt lat="45.43813" lon="5.9718">
        <ele>493</ele>
        <time>2013-11-30T10:57:52Z</time>
      </trkpt>
      <trkpt lat="45.4383" lon="5.9719">
        <ele>492</ele>
        <time>2013-11-30T10:58:45Z</time>
      </trkpt>
      <trkpt lat="45.43847" lon="5.972">
        <ele>493</ele>
        <time>2013-11-30T10:59:05Z</time>
      </trkpt>
      <trkpt lat="45.43865" lon="5.97207">
        <ele>493</ele>
        <time>2013-11-30T10:59:57Z</time>
      </trkpt>
      <trkpt lat="45.43877" lon="5.97227">
        <ele>491</ele>
        <time>2013-11-30T11:00:16Z</time>
      </trkpt>
      <trkpt lat="45.43861" lon="5.97213">
        <ele>491</ele>
        <time>2013-11-30T11:00:31Z</time>
      </trkpt>
      <trkpt lat="45.43847" lon="5.97196">
        <ele>494</ele>
        <time>2013-11-30T11:00:44Z</time>
      </trkpt>
      <trkpt lat="45.43831" lon="5.97183">
        <ele>494</ele>
        <time>2013-11-30T11:00:57Z</time>
      </trkpt>
      <trkpt lat="45.43814" lon="5.97172">
        <ele>494</ele>
        <time>2013-11-30T11:01:14Z</time>
      </trkpt>
      <trkpt lat="45.43801" lon="5.97189">
        <ele>491</ele>
        <time>2013-11-30T11:01:31Z</time>
      </trkpt>
      <trkpt lat="45.43796" lon="5.97215">
        <ele>486</ele>
        <time>2013-11-30T11:01:50Z</time>
      </trkpt>
      <trkpt lat="45.43789" lon="5.97239">
        <ele>483</ele>
        <time>2013-11-30T11:02:02Z</time>
      </trkpt>
      <trkpt lat="45.43777" lon="5.9726">
        <ele>466</ele>
        <time>2013-11-30T11:02:16Z</time>
      </trkpt>
      <trkpt lat="45.4376" lon="5.97273">
        <ele>466</ele>
        <time>2013-11-30T11:02:33Z</time>
      </trkpt>
      <trkpt lat="45.43744" lon="5.97284">
        <ele>461</ele>
        <time>2013-11-30T11:02:49Z</time>
      </trkpt>
      <trkpt lat="45.43727" lon="5.97298">
        <ele>459</ele>
        <time>2013-11-30T11:03:03Z</time>
      </trkpt>
      <trkpt lat="45.43714" lon="5.97316">
        <ele>457</ele>
        <time>2013-11-30T11:03:24Z</time>
      </trkpt>
      <trkpt lat="45.43698" lon="5.9733">
        <ele>455</ele>
        <time>2013-11-30T11:04:07Z</time>
      </trkpt>
      <trkpt lat="45.43686" lon="5.97349">
        <ele>442</ele>
        <time>2013-11-30T11:04:23Z</time>
      </trkpt>
      <trkpt lat="45.43678" lon="5.97372">
        <ele>438</ele>
        <time>2013-11-30T11:04:47Z</time>
      </trkpt>
      <trkpt lat="45.43695" lon="5.9738">
        <ele>437</ele>
        <time>2013-11-30T11:05:00Z</time>
      </trkpt>
      <trkpt lat="45.43715" lon="5.97381">
        <ele>437</ele>
        <time>2013-11-30T11:05:15Z</time>
      </trkpt>
      <trkpt lat="45.43696" lon="5.97383">
        <ele>437</ele>
        <time>2013-11-30T11:05:43Z</time>
      </trkpt>
      <trkpt lat="45.43678" lon="5.97376">
        <ele>437</ele>
        <time>2013-11-30T11:05:56Z</time>
      </trkpt>
      <trkpt lat="45.43659" lon="5.97377">
        <ele>432</ele>
        <time>2013-11-30T11:06:09Z</time>
      </trkpt>
      <trkpt lat="45.43644" lon="5.97392">
        <ele>429</ele>
        <time>2013-11-30T11:06:21Z</time>
      </trkpt>
      <trkpt lat="45.43628" lon="5.97406">
        <ele>427</ele>
        <time>2013-11-30T11:06:36Z</time>
      </trkpt>
      <trkpt lat="45.43612" lon="5.97417">
        <ele>425</ele>
        <time>2013-11-30T11:06:50Z</time>
      </trkpt>
      <trkpt lat="45.43595" lon="5.97427">
        <ele>413</ele>
        <time>2013-11-30T11:07:05Z</time>
      </trkpt>
      <trkpt lat="45.43577" lon="5.97434">
        <ele>408</ele>
        <time>2013-11-30T11:07:26Z</time>
      </trkpt>
      <trkpt lat="45.43559" lon="5.97435">
        <ele>405</ele>
        <time>2013-11-30T11:07:45Z</time>
      </trkpt>
      <trkpt lat="45.43541" lon="5.97445">
        <ele>402</ele>
        <time>2013-11-30T11:08:13Z</time>
      </trkpt>
      <trkpt lat="45.43523" lon="5.97453">
        <ele>400</ele>
        <time>2013-11-30T11:08:32Z</time>
      </trkpt>
      <trkpt lat="45.4351" lon="5.97474">
        <ele>396</ele>
        <time>2013-11-30T11:08:46Z</time>
      </trkpt>
      <trkpt lat="45.43503" lon="5.97498">
        <ele>389</ele>
        <time>2013-11-30T11:08:59Z</time>
      </trkpt>
      <trkpt lat="45.43494" lon="5.97521">
        <ele>382</ele>
        <time>2013-11-30T11:09:26Z</time>
      </trkpt>
      <trkpt lat="45.43483" lon="5.97543">
        <ele>380</ele>
        <time>2013-11-30T11:09:44Z</time>
      </trkpt>
      <trkpt lat="45.43473" lon="5.97565">
        <ele>378</ele>
        <time>2013-11-30T11:09:59Z</time>
      </trkpt>
      <trkpt lat="45.43465" lon="5.97588">
        <ele>372</ele>
        <time>2013-11-30T11:10:13Z</time>
      </trkpt>
      <trkpt lat="45.43459" lon="5.97613">
        <ele>371</ele>
        <time>2013-11-30T11:10:27Z</time>
      </trkpt>
      <trkpt lat="45.4345" lon="5.97636">
        <ele>371</ele>
        <time>2013-11-30T11:10:43Z</time>
      </trkpt>
      <trkpt lat="45.43442" lon="5.97661">
        <ele>370</ele>
        <time>2013-11-30T11:10:59Z</time>
      </trkpt>
      <trkpt lat="45.43441" lon="5.97687">
        <ele>367</ele>
        <time>2013-11-30T11:11:12Z</time>
      </trkpt>
      <trkpt lat="45.43458" lon="5.97698">
        <ele>366</ele>
        <time>2013-11-30T11:11:28Z</time>
      </trkpt>
      <trkpt lat="45.43476" lon="5.97693">
        <ele>366</ele>
        <time>2013-11-30T11:11:38Z</time>
      </trkpt>
      <trkpt lat="45.43494" lon="5.97695">
        <ele>366</ele>
        <time>2013-11-30T11:11:50Z</time>
      </trkpt>
      <trkpt lat="45.43511" lon="5.97707">
        <ele>364</ele>
        <time>2013-11-30T11:12:05Z</time>
      </trkpt>
      <trkpt lat="45.43515" lon="5.97733">
        <ele>363</ele>
        <time>2013-11-30T11:12:20Z</time>
      </trkpt>
      <trkpt lat="45.43518" lon="5.97761">
        <ele>361</ele>
        <time>2013-11-30T11:12:32Z</time>
      </trkpt>
      <trkpt lat="45.43521" lon="5.97787">
        <ele>360</ele>
        <time>2013-11-30T11:12:46Z</time>
      </trkpt>
      <trkpt lat="45.4352" lon="5.97813">
        <ele>359</ele>
        <time>2013-11-30T11:12:59Z</time>
      </trkpt>
      <trkpt lat="45.43519" lon="5.97839">
        <ele>357</ele>
        <time>2013-11-30T11:13:15Z</time>
      </trkpt>
      <trkpt lat="45.43538" lon="5.97842">
        <ele>357</ele>
        <time>2013-11-30T11:13:28Z</time>
      </trkpt>
      <trkpt lat="45.43559" lon="5.97843">
        <ele>357</ele>
        <time>2013-11-30T11:13:42Z</time>
      </trkpt>
      <trkpt lat="45.43577" lon="5.97849">
        <ele>357</ele>
        <time>2013-11-30T11:13:57Z</time>
      </trkpt>
      <trkpt lat="45.43596" lon="5.97845">
        <ele>358</ele>
        <time>2013-11-30T11:14:08Z</time>
      </trkpt>
      <trkpt lat="45.43616" lon="5.97844">
        <ele>358</ele>
        <time>2013-11-30T11:14:23Z</time>
      </trkpt>
      <trkpt lat="45.43633" lon="5.97851">
        <ele>358</ele>
        <time>2013-11-30T11:14:37Z</time>
      </trkpt>
      <trkpt lat="45.43652" lon="5.97851">
        <ele>359</ele>
        <time>2013-11-30T11:14:50Z</time>
      </trkpt>
      <trkpt lat="45.43669" lon="5.9786">
        <ele>361</ele>
        <time>2013-11-30T11:15:04Z</time>
      </trkpt>
      <trkpt lat="45.43686" lon="5.97869">
        <ele>361</ele>
        <time>2013-11-30T11:15:15Z</time>
      </trkpt>
      <trkpt lat="45.43704" lon="5.97873">
        <ele>361</ele>
        <time>2013-11-30T11:15:27Z</time>
      </trkpt>
      <trkpt lat="45.43721" lon="5.97885">
        <ele>361</ele>
        <time>2013-11-30T11:15:42Z</time>
      </trkpt>
      <trkpt lat="45.43738" lon="5.97896">
        <ele>362</ele>
        <time>2013-11-30T11:15:52Z</time>
      </trkpt>
      <trkpt lat="45.43754" lon="5.97905">
        <ele>363</ele>
        <time>2013-11-30T11:16:05Z</time>
      </trkpt>
      <trkpt lat="45.43773" lon="5.97914">
        <ele>364</ele>
        <time>2013-11-30T11:16:18Z</time>
      </trkpt>
      <trkpt lat="45.4379" lon="5.97922">
        <ele>363</ele>
        <time>2013-11-30T11:16:32Z</time>
      </trkpt>
      <trkpt lat="45.43808" lon="5.97933">
        <ele>363</ele>
        <time>2013-11-30T11:16:46Z</time>
      </trkpt>
      <trkpt lat="45.43825" lon="5.97942">
        <ele>363</ele>
        <time>2013-11-30T11:16:57Z</time>
      </trkpt>
      <trkpt lat="45.43843" lon="5.97951">
        <ele>366</ele>
        <time>2013-11-30T11:17:09Z</time>
      </trkpt>
      <trkpt lat="45.4386" lon="5.97964">
        <ele>366</ele>
        <time>2013-11-30T11:17:22Z</time>
      </trkpt>
      <trkpt lat="45.43878" lon="5.97972">
        <ele>366</ele>
        <time>2013-11-30T11:17:36Z</time>
      </trkpt>
      <trkpt lat="45.43895" lon="5.97982">
        <ele>367</ele>
        <time>2013-11-30T11:17:48Z</time>
      </trkpt>
      <trkpt lat="45.43912" lon="5.9799">
        <ele>367</ele>
        <time>2013-11-30T11:18:01Z</time>
      </trkpt>
      <trkpt lat="45.4393" lon="5.97998">
        <ele>367</ele>
        <time>2013-11-30T11:18:12Z</time>
      </trkpt>
      <trkpt lat="45.43947" lon="5.98004">
        <ele>364</ele>
        <time>2013-11-30T11:18:25Z</time>
      </trkpt>
      <trkpt lat="45.43966" lon="5.9801">
        <ele>363</ele>
        <time>2013-11-30T11:18:38Z</time>
      </trkpt>
      <trkpt lat="45.43985" lon="5.98012">
        <ele>363</ele>
        <time>2013-11-30T11:18:51Z</time>
      </trkpt>
      <trkpt lat="45.44003" lon="5.98017">
        <ele>362</ele>
        <time>2013-11-30T11:19:04Z</time>
      </trkpt>
      <trkpt lat="45.44021" lon="5.98022">
        <ele>362</ele>
        <time>2013-11-30T11:19:18Z</time>
      </trkpt>
      <trkpt lat="45.44039" lon="5.98028">
        <ele>361</ele>
        <time>2013-11-30T11:19:30Z</time>
      </trkpt>
      <trkpt lat="45.44057" lon="5.98031">
        <ele>361</ele>
        <time>2013-11-30T11:19:44Z</time>
      </trkpt>
      <trkpt lat="45.44112" lon="5.98033">
        <ele>360</ele>
        <time>2013-11-30T11:20:20Z</time>
      </trkpt>
      <trkpt lat="45.44129" lon="5.98022">
        <ele>360</ele>
        <time>2013-11-30T11:20:37Z</time>
      </trkpt>
      <trkpt lat="45.44148" lon="5.98019">
        <ele>360</ele>
        <time>2013-11-30T11:20:50Z</time>
      </trkpt>
      <trkpt lat="45.44167" lon="5.98017">
        <ele>360</ele>
        <time>2013-11-30T11:21:04Z</time>
      </trkpt>
      <trkpt lat="45.44185" lon="5.98021">
        <ele>360</ele>
        <time>2013-11-30T11:21:16Z</time>
      </trkpt>
      <trkpt lat="45.44203" lon="5.98022">
        <ele>360</ele>
        <time>2013-11-30T11:21:29Z</time>
      </trkpt>
      <trkpt lat="45.44222" lon="5.98024">
        <ele>360</ele>
        <time>2013-11-30T11:21:43Z</time>
      </trkpt>
      <trkpt lat="45.4424" lon="5.98034">
        <ele>359</ele>
        <time>2013-11-30T11:21:56Z</time>
      </trkpt>
      <trkpt lat="45.44257" lon="5.98043">
        <ele>360</ele>
        <time>2013-11-30T11:22:08Z</time>
      </trkpt>
      <trkpt lat="45.44275" lon="5.98049">
        <ele>360</ele>
        <time>2013-11-30T11:22:21Z</time>
      </trkpt>
      <trkpt lat="45.44293" lon="5.98057">
        <ele>360</ele>
        <time>2013-11-30T11:22:32Z</time>
      </trkpt>
      <trkpt lat="45.4431" lon="5.98063">
        <ele>360</ele>
        <time>2013-11-30T11:22:44Z</time>
      </trkpt>
      <trkpt lat="45.44328" lon="5.98068">
        <ele>360</ele>
        <time>2013-11-30T11:22:58Z</time>
      </trkpt>
      <trkpt lat="45.44346" lon="5.98076">
        <ele>363</ele>
        <time>2013-11-30T11:23:13Z</time>
      </trkpt>
      <trkpt lat="45.44364" lon="5.98075">
        <ele>365</ele>
        <time>2013-11-30T11:23:24Z</time>
      </trkpt>
      <trkpt lat="45.44383" lon="5.98069">
        <ele>366</ele>
        <time>2013-11-30T11:23:37Z</time>
      </trkpt>
      <trkpt lat="45.44386" lon="5.98043">
        <ele>367</ele>
        <time>2013-11-30T11:24:00Z</time>
      </trkpt>
      <trkpt lat="45.4437" lon="5.98032">
        <ele>366</ele>
        <time>2013-11-30T11:24:13Z</time>
      </trkpt>
      <trkpt lat="45.44352" lon="5.98029">
        <ele>366</ele>
        <time>2013-11-30T11:25:21Z</time>
      </trkpt>
      <trkpt lat="45.44365" lon="5.98012">
        <ele>366</ele>
        <time>2013-11-30T11:26:44Z</time>
      </trkpt>
      <trkpt lat="45.44376" lon="5.97983">
        <ele>371</ele>
        <time>2013-11-30T11:26:50Z</time>
      </trkpt>
      <trkpt lat="45.44385" lon="5.9796">
        <ele>372</ele>
        <time>2013-11-30T11:26:54Z</time>
      </trkpt>
      <trkpt lat="45.44388" lon="5.97923">
        <ele>374</ele>
        <time>2013-11-30T11:27:02Z</time>
      </trkpt>
      <trkpt lat="45.44385" lon="5.97897">
        <ele>379</ele>
        <time>2013-11-30T11:27:07Z</time>
      </trkpt>
      <trkpt lat="45.44371" lon="5.9788">
        <ele>380</ele>
        <time>2013-11-30T11:27:19Z</time>
      </trkpt>
      <trkpt lat="45.44361" lon="5.97902">
        <ele>377</ele>
        <time>2013-11-30T11:27:29Z</time>
      </trkpt>
      <trkpt lat="45.44366" lon="5.97929">
        <ele>372</ele>
        <time>2013-11-30T11:27:39Z</time>
      </trkpt>
      <trkpt lat="45.44369" lon="5.97954">
        <ele>372</ele>
        <time>2013-11-30T11:28:03Z</time>
      </trkpt>
      <trkpt lat="45.44249" lon="5.97856">
        <ele>369</ele>
        <time>2013-11-30T11:29:16Z</time>
      </trkpt>
      <trkpt lat="45.44266" lon="5.97869">
        <ele>371</ele>
        <time>2013-11-30T11:30:03Z</time>
      </trkpt>
      <trkpt lat="45.44281" lon="5.97884">
        <ele>371</ele>
        <time>2013-11-30T11:30:12Z</time>
      </trkpt>
      <trkpt lat="45.443" lon="5.97884">
        <ele>372</ele>
        <time>2013-11-30T11:30:29Z</time>
      </trkpt>
      <trkpt lat="45.44299" lon="5.97857">
        <ele>373</ele>
        <time>2013-11-30T11:30:43Z</time>
      </trkpt>
      <trkpt lat="45.44282" lon="5.97843">
        <ele>372</ele>
        <time>2013-11-30T11:30:53Z</time>
      </trkpt>
      <trkpt lat="45.44286" lon="5.97869">
        <ele>372</ele>
        <time>2013-11-30T11:31:02Z</time>
      </trkpt>
      <trkpt lat="45.44302" lon="5.97904">
        <ele>371</ele>
        <time>2013-11-30T11:31:16Z</time>
      </trkpt>
      <trkpt lat="45.44313" lon="5.97926">
        <ele>368</ele>
        <time>2013-11-30T11:31:23Z</time>
      </trkpt>
      <trkpt lat="45.44325" lon="5.97948">
        <ele>367</ele>
        <time>2013-11-30T11:31:31Z</time>
      </trkpt>
      <trkpt lat="45.4434" lon="5.97964">
        <ele>370</ele>
        <time>2013-11-30T11:33:30Z</time>
      </trkpt>
      <trkpt lat="45.44352" lon="5.97984">
        <ele>369</ele>
        <time>2013-11-30T11:34:08Z</time>
      </trkpt>
      <trkpt lat="45.44362" lon="5.98006">
        <ele>366</ele>
        <time>2013-11-30T11:34:21Z</time>
      </trkpt>
    </trkseg>
  </trk>
</gpx>